Amiret, Minnesota
Current Conditions -  °F | °C
As of 10:53 PM on Thursday 30 Oct 2014 (Local Time) from KTKC Reporting Station
Clear Clear  
Wind Chill: 22°   Ceiling: Unl
Heat Index: 32°   Visibility: 10mi
Dew Point: 25°   Wind: 15mph
Humidity: 74%   Direction: 350°N
Pressure: 30.43"   Gusts: NA
Location:  44.2253°N, 95.6512°W
Report Text: KTKC 310353Z AUTO 35013KT 10SM CLR 00/M04 A3043 RMK AO2 T00001041
Loading
Personal Weather Stations






























Interactive Weather Map
Tropical Storm Tracking
New forecast layout! Learn more

10-Day Weather Forecast

Advertisements
Track Severe Weather on mobile